Latest Weather Observations for Mildura

IDN60801

Issued at 10:32 am EDT Wednesday 16 January 2019 (issued every 10 minutes, with the page automatically refreshed every 10 minutes)

About weather observations | Map of weather stations | Latest weather observations for NSW | Other Formats
Station Details ID: 076031 Name: MILDURA AIRPORT Lat: -34.24 Lon: 142.09 Height: 50.0 m
Data from the previous 72 hours. | See also: Recent months at Mildura
Date/Time
EDT
Temp
°C
App
Temp
°C
Dew
Point
°C
Rel
Hum
%
Delta-T
°C
Wind Press
QNH
hPa
Press
MSL
hPa
Rain since
9am
mm
Dir  Spd
km/h
Gust
km/h
Spd
kts
Gust
kts
16/10:30am 37.2 35.6 6.3 15 17.1 NNW 4 9 2 5 1008.2 1008.0 0.0
16/10:00am 35.4 33.7 5.8 16 16.1 NW 4 9 2 5 1008.7 1008.5 0.0
16/09:30am 33.8 32.4 5.4 17 15.2 WNW 2 7 1 4 1008.8 1008.6 0.0
16/09:00am 31.5 30.2 5.8 20 13.7 W 2 6 1 3 1008.8 1008.6 0.0
16/08:30am 29.2 27.7 6.6 24 12.0 WSW 4 9 2 5 1008.6 1008.4 0.0
16/08:00am 27.0 26.3 6.9 28 10.7 CALM 0 0 0 0 1008.4 1008.2 0.0
16/07:30am 24.5 23.5 5.8 30 9.6 CALM 0 0 0 0 1008.0 1007.8 0.0
16/07:00am 23.4 20.5 4.4 29 9.4 SSW 9 11 5 6 1007.8 1007.6 0.0
16/06:30am 23.2 20.5 5.6 32 8.9 SW 9 13 5 7 1007.3 1007.1 0.0
16/06:00am 23.4 21.0 5.3 31 9.1 SSW 7 9 4 5 1007.2 1007.0 0.0
16/05:30am 24.7 22.9 5.5 29 9.8 NNE 4 7 2 4 1006.9 1006.7 0.0
16/05:00am 24.2 22.2 4.6 28 9.8 ESE 4 9 2 5 1006.7 1006.5 0.0
16/04:30am 25.1 22.1 5.8 29 9.9 NE 11 13 6 7 1006.5 1006.2 0.0
16/04:00am 26.6 23.7 4.4 24 11.2 ESE 9 11 5 6 1006.7 1006.5 0.0
16/03:30am 26.4 23.4 4.2 24 11.2 S 9 11 5 6 1007.0 1006.8 0.0
16/03:00am 26.9 24.3 4.0 23 11.5 SE 7 9 4 5 1007.2 1007.0 0.0
16/02:30am 27.1 24.4 3.6 22 11.7 SSE 7 9 4 5 1007.5 1007.3 0.0
16/02:00am 27.8 24.7 3.5 21 12.2 SSE 9 11 5 6 1007.7 1007.5 0.0
16/01:30am 27.7 25.2 4.7 23 11.8 S 7 9 4 5 1008.0 1007.8 0.0
16/01:00am 29.5 26.6 2.7 18 13.4 S 7 11 4 6 1008.0 1007.8 0.0
16/12:30am 30.1 26.8 2.4 17 13.8 S 9 11 5 6 1008.3 1008.1 0.0
16/12:00am 30.7 27.1 2.9 17 14.1 SSW 11 13 6 7 1008.4 1008.2 0.0
 
Date/Time
EDT
Temp
°C
App
Temp
°C
Dew
Point
°C
Rel
Hum
%
Delta-T
°C
Wind Press
QNH
hPa
Press
MSL
hPa
Rain since
9am
mm
Dir  Spd
km/h
Gust
km/h
Spd
kts
Gust
kts
15/11:30pm 30.7 28.2 3.7 18 13.8 SSE 6 7 3 4 1008.1 1007.9 0.0
15/11:00pm 31.9 29.1 3.0 16 14.8 S 7 9 4 5 1008.1 1007.9 0.0
15/10:30pm 34.4 31.0 2.0 13 16.5 SSE 9 11 5 6 1007.9 1007.7 0.0
15/10:00pm 36.5 32.8 0.0 10 18.3 SSE 9 13 5 7 1007.6 1007.4 0.0
15/09:30pm 37.5 33.7 -0.7 9 19.0 S 9 13 5 7 1007.4 1007.2 0.0
15/09:00pm 36.5 33.4 0.0 10 18.3 SSW 6 7 3 4 1007.0 1006.8 0.0
15/08:30pm 39.8 35.4 -2.4 7 20.7 S 11 17 6 9 1006.5 1006.2 0.0
15/08:00pm 40.5 35.8 -1.9 7 21.1 S 13 19 7 10 1006.5 1006.2 0.0
15/07:30pm 41.6 35.9 -1.1 7 21.6 SSW 19 32 10 17 1006.5 1006.2 0.0
15/07:00pm 42.4 36.2 -0.6 7 22.1 SSW 22 35 12 19 1006.4 1006.1 0.0
15/06:30pm 43.5 37.4 0.2 7 22.6 SSW 22 37 12 20 1006.1 1005.8 0.0
15/06:16pm 43.7 36.5 0.4 7 22.7 SSW 28 46 15 25 1005.9 1005.6 0.0
15/06:00pm 43.8 38.1 0.4 7 22.8 SW 20 33 11 18 1005.7 1005.4 0.0
15/05:30pm 45.2 39.3 -0.7 6 23.9 WSW 20 43 11 23 1005.5 1005.2 0.0
15/05:00pm 45.5 40.2 1.7 7 23.7 WSW 19 33 10 18 1005.4 1005.1 0.0
15/04:30pm 44.9 38.5 1.2 7 23.3 W 24 41 13 22 1005.6 1005.3 0.0
15/04:00pm 45.3 40.1 3.4 8 23.2 WNW 20 35 11 19 1005.8 1005.5 0.0
15/03:30pm 44.4 38.7 2.7 8 22.7 WNW 22 37 12 20 1006.2 1005.9 0.0
15/03:00pm 43.5 37.3 2.1 8 22.3 WNW 24 39 13 21 1006.6 1006.4 0.0
15/02:30pm 43.0 36.3 1.7 8 22.0 W 26 39 14 21 1006.9 1006.7 0.0
15/02:01pm 44.8 38.0 3.0 8 22.9 WNW 28 46 15 25 1006.9 1006.7 0.0
15/02:00pm 44.8 37.6 3.0 8 22.9 WNW 30 46 16 25 1006.9 1006.7 0.0
15/01:30pm 43.3 36.7 1.9 8 22.1 WNW 26 37 14 20 1007.4 1007.2 0.0
15/01:00pm 43.1 36.1 1.8 8 22.1 WNW 28 41 15 22 1007.6 1007.4 0.0
15/12:30pm 42.9 37.0 1.6 8 21.9 NW 22 35 12 19 1007.7 1007.5 0.0
15/12:00pm 42.6 35.8 3.1 9 21.4 NW 28 41 15 22 1007.7 1007.5 0.0
15/11:30am 41.6 34.7 2.3 9 20.9 NW 28 41 15 22 1007.8 1007.6 0.0
15/11:00am 40.0 34.7 5.2 12 19.2 NNW 22 33 12 18 1008.0 1007.8 0.0
15/10:30am 38.6 33.7 4.1 12 18.6 NW 19 26 10 14 1008.2 1008.0 0.0
15/10:00am 37.1 34.0 7.1 16 16.8 NNW 13 20 7 11 1008.6 1008.4 0.0
15/09:30am 34.6 32.2 6.8 18 15.3 N 9 11 5 6 1008.9 1008.7 0.0
15/09:00am 31.9 28.8 5.4 19 14.1 NE 11 15 6 8 1008.8 1008.6 0.0
15/08:30am 30.2 27.8 6.8 23 12.6 ENE 9 11 5 6 1008.8 1008.6 0.0
15/08:00am 28.7 26.4 5.5 23 12.1 E 7 11 4 6 1008.4 1008.2 0.0
15/07:30am 26.7 24.2 4.5 24 11.2 E 7 9 4 5 1008.3 1008.1 0.0
15/07:00am 25.8 22.6 3.1 23 11.2 SSE 9 11 5 6 1008.0 1007.8 0.0
15/06:30am 26.3 23.0 2.3 21 11.7 SE 9 11 5 6 1007.9 1007.7 0.0
15/06:00am 26.0 22.6 2.0 21 11.6 SE 9 11 5 6 1007.6 1007.4 0.0
15/05:30am 26.3 23.2 1.6 20 11.8 SE 7 9 4 5 1007.7 1007.5 0.0
15/05:00am 26.8 23.3 1.3 19 12.2 SE 9 11 5 6 1007.7 1007.5 0.0
15/04:30am 27.0 23.5 1.4 19 12.3 SE 9 13 5 7 1007.8 1007.6 0.0
15/04:00am 27.0 23.0 0.7 18 12.5 SE 11 13 6 7 1008.0 1007.8 0.0
15/03:30am 27.9 23.7 -1.1 15 13.4 SE 11 15 6 8 1008.3 1008.1 0.0
15/03:00am 28.2 23.6 -0.9 15 13.6 SE 13 20 7 11 1008.6 1008.4 0.0
15/02:30am 27.2 23.7 -1.7 15 13.1 SSE 7 9 4 5 1008.8 1008.6 0.0
15/02:00am 28.7 24.8 -1.4 14 13.9 S 9 13 5 7 1008.8 1008.6 0.0
15/01:30am 29.6 25.7 -1.7 13 14.5 S 9 13 5 7 1008.8 1008.6 0.0
15/01:00am 30.7 26.9 -0.8 13 15.0 SSE 9 13 5 7 1008.7 1008.5 0.0
15/12:30am 29.7 26.6 1.2 16 13.9 S 7 9 4 5 1008.5 1008.3 0.0
15/12:00am 30.3 27.1 0.8 15 14.4 SSE 7 9 4 5 1008.4 1008.2 0.0
 
Date/Time
EDT
Temp
°C
App
Temp
°C
Dew
Point
°C
Rel
Hum
%
Delta-T
°C
Wind Press
QNH
hPa
Press
MSL
hPa
Rain since
9am
mm
Dir  Spd
km/h
Gust
km/h
Spd
kts
Gust
kts
14/11:30pm 32.9 28.8 -0.2 12 16.1 SSE 11 13 6 7 1008.4 1008.2 0.0
14/11:00pm 33.3 29.2 0.1 12 16.3 SSE 11 15 6 8 1008.3 1008.1 0.0
14/10:30pm 32.5 29.3 0.6 13 15.7 S 7 9 4 5 1008.3 1008.1 0.0
14/10:00pm 34.4 30.7 -0.3 11 17.1 S 9 11 5 6 1008.1 1007.9 0.0
14/09:30pm 35.2 31.9 0.3 11 17.4 SSW 7 9 4 5 1008.1 1007.9 0.0
14/09:00pm 37.6 33.8 -0.6 9 19.1 SSW 9 13 5 7 1007.9 1007.7 0.0
14/08:30pm 39.6 35.4 -0.8 8 20.3 SW 11 17 6 9 1007.7 1007.5 0.0
14/08:00pm 41.0 36.6 0.3 8 21.0 SW 13 20 7 11 1007.5 1007.3 0.0
14/07:30pm 41.9 36.9 -0.9 7 21.8 SW 15 24 8 13 1007.5 1007.3 0.0
14/07:00pm 42.3 37.4 -0.6 7 22.0 WSW 15 26 8 14 1007.4 1007.2 0.0
14/06:30pm 42.7 39.5 -0.4 7 22.2 WNW 6 13 3 7 1007.2 1007.0 0.0
14/06:00pm 42.4 37.1 -0.6 7 22.1 W 17 24 9 13 1007.3 1007.1 0.0
14/05:30pm 42.6 38.5 -0.4 7 22.1 W 11 24 6 13 1007.5 1007.3 0.0
14/05:00pm 42.2 38.4 -0.7 7 22.0 WNW 9 19 5 10 1007.7 1007.5 0.0
14/04:30pm 41.9 36.6 -0.9 7 21.8 WSW 17 30 9 16 1008.1 1007.9 0.0
14/04:00pm 41.7 36.0 -1.1 7 21.7 WSW 19 30 10 16 1008.4 1008.2 0.0
14/03:30pm 42.0 36.7 -0.9 7 21.8 W 17 26 9 14 1008.6 1008.4 0.0
14/03:00pm 41.3 36.7 -1.4 7 21.5 WNW 13 32 7 17 1009.0 1008.8 0.0
14/02:30pm 40.9 36.1 0.2 8 20.9 W 15 28 8 15 1009.3 1009.1 0.0
14/02:00pm 40.4 35.9 -0.2 8 20.7 NW 13 22 7 12 1009.5 1009.3 0.0
14/01:30pm 39.5 35.5 0.8 9 19.9 WNW 11 24 6 13 1009.8 1009.6 0.0
14/01:00pm 38.8 35.2 0.3 9 19.6 N 9 17 5 9 1010.2 1010.0 0.0
14/12:30pm 38.9 35.3 0.3 9 19.7 SE 9 17 5 9 1010.7 1010.5 0.0
14/12:00pm 37.5 33.7 -0.7 9 19.0 SE 9 15 5 8 1010.9 1010.7 0.0
14/11:30am 36.0 33.0 4.3 14 16.9 SE 9 15 5 8 1011.1 1010.9 0.0
14/11:00am 34.9 33.4 9.3 21 14.7 E 7 13 4 7 1011.2 1011.0 0.0
14/10:30am 32.3 31.4 11.5 28 12.2 ENE 7 13 4 7 1011.5 1011.3 0.0
14/10:00am 30.5 29.3 11.5 31 11.1 E 9 13 5 7 1011.6 1011.4 0.0
14/09:30am 28.1 26.1 11.6 36 9.5 ESE 13 17 7 9 1011.8 1011.6 0.0
14/09:00am 26.5 24.6 11.8 40 8.4 E 13 17 7 9 1011.9 1011.7 0.0
14/08:30am 25.0 23.9 11.9 44 7.5 E 9 13 5 7 1012.1 1011.9 0.0
14/08:00am 22.3 20.3 10.1 46 6.7 SSE 11 15 6 8 1011.6 1011.4 0.0
14/07:30am 21.0 19.2 9.6 48 6.1 SSE 9 13 5 7 1011.4 1011.2 0.0
14/07:00am 19.9 18.0 9.2 50 5.7 S 9 13 5 7 1011.4 1011.2 0.0
14/06:30am 19.8 17.7 8.2 47 6.0 S 9 11 5 6 1011.0 1010.8 0.0
14/06:00am 20.2 18.0 7.9 45 6.4 S 9 11 5 6 1010.9 1010.7 0.0
14/05:30am 20.9 18.5 7.2 41 7.0 S 9 11 5 6 1010.6 1010.4 0.0
14/05:00am 21.2 18.6 6.3 38 7.5 S 9 13 5 7 1010.5 1010.3 0.0
14/04:30am 21.7 19.0 5.6 35 8.1 S 9 13 5 7 1010.4 1010.2 0.0
14/04:00am 22.3 18.6 4.4 31 8.8 SSW 13 15 7 8 1010.4 1010.2 0.0
14/03:30am 22.7 19.5 3.3 28 9.4 S 9 11 5 6 1010.6 1010.4 0.0
14/03:00am 23.3 20.0 2.2 25 10.0 S 9 11 5 6 1010.8 1010.6 0.0
14/02:30am 24.1 20.7 1.7 23 10.6 S 9 11 5 6 1011.2 1011.0 0.0
14/02:00am 25.0 21.5 1.2 21 11.2 S 9 11 5 6 1011.3 1011.1 0.0
14/01:30am 26.4 22.1 0.9 19 12.1 S 13 19 7 10 1011.4 1011.2 0.0
14/01:00am 25.2 21.3 1.3 21 11.3 S 11 13 6 7 1011.4 1011.2 0.0
14/12:30am 24.7 21.6 0.3 20 11.3 S 6 7 3 4 1011.5 1011.3 0.0
14/12:00am 25.1 22.1 1.9 22 11.1 S 7 9 4 5 1011.6 1011.4 0.0
 
Date/Time
EDT
Temp
°C
App
Temp
°C
Dew
Point
°C
Rel
Hum
%
Delta-T
°C
Wind Press
QNH
hPa
Press
MSL
hPa
Rain since
9am
mm
Dir  Spd
km/h
Gust
km/h
Spd
kts
Gust
kts
13/11:30pm 25.9 22.9 1.9 21 11.5 S 7 9 4 5 1011.5 1011.3 0.0
13/11:00pm 26.5 23.9 3.1 22 11.5 S 6 7 3 4 1011.7 1011.5 0.0
13/10:30pm 27.7 25.1 4.1 22 11.9 S 7 9 4 5 1011.6 1011.4 0.0
13/10:00pm 29.1 26.2 2.4 18 13.2 S 7 9 4 5 1011.6 1011.4 0.0
13/09:30pm 29.8 27.1 3.7 19 13.3 S 7 7 4 4 1011.7 1011.5 0.0
13/09:00pm 31.1 29.1 2.3 16 14.4 SE 2 7 1 4 1011.6 1011.4 0.0
13/08:30pm 34.3 31.5 2.0 13 16.4 SE 6 7 3 4 1011.4 1011.2 0.0
13/08:00pm 36.3 32.0 -1.6 9 18.4 SE 11 15 6 8 1011.1 1010.9 0.0
13/07:30pm 37.2 32.4 -2.5 8 19.1 SSE 13 19 7 10 1010.9 1010.7 0.0
13/07:00pm 37.2 32.2 -4.3 7 19.5 SSE 13 20 7 11 1010.9 1010.7 0.0
13/06:30pm 37.7 33.1 -3.9 7 19.7 SSE 11 17 6 9 1011.0 1010.8 0.0
13/06:00pm 37.6 32.6 -4.0 7 19.7 SSE 13 22 7 12 1011.1 1010.9 0.0
13/05:30pm 37.2 31.8 -4.3 7 19.5 SSE 15 24 8 13 1011.5 1011.3 0.0
13/05:00pm 37.3 31.2 -4.2 7 19.5 SSE 19 24 10 13 1011.7 1011.5 0.0
13/04:30pm 36.7 31.1 -2.9 8 18.9 S 17 26 9 14 1011.9 1011.7 0.0
13/04:00pm 36.5 31.1 -1.4 9 18.5 S 17 26 9 14 1012.3 1012.1 0.0
13/03:30pm 36.0 31.1 -0.4 10 18.0 S 15 24 8 13 1012.8 1012.6 0.0
13/03:00pm 34.7 29.5 -0.1 11 17.2 S 17 26 9 14 1013.2 1013.0 0.0
13/02:30pm 33.8 28.5 1.6 13 16.2 SSE 19 30 10 16 1013.7 1013.5 0.0
13/02:00pm 32.8 28.6 3.7 16 15.1 S 15 24 8 13 1014.1 1013.9 0.0
13/01:30pm 31.6 27.5 4.4 18 14.2 S 15 26 8 14 1014.6 1014.4 0.0
13/01:00pm 30.1 26.1 4.7 20 13.2 S 15 22 8 12 1015.1 1014.9 0.0
13/12:30pm 28.5 24.9 6.6 25 11.6 S 15 22 8 12 1015.6 1015.4 0.0
13/12:00pm 27.5 23.4 6.3 26 11.1 S 17 30 9 16 1015.8 1015.6 0.0
13/11:30am 25.2 21.1 6.4 30 9.8 S 17 22 9 12 1016.1 1015.9 0.0
13/11:00am 24.2 20.2 6.5 32 9.1 SSE 17 28 9 15 1016.3 1016.1 0.0

Other Formats:

Comma delimited format used in spreadsheet applications
http://www.bom.gov.au/fwo/IDN60801/IDN60801.94693.axf

JavaScript Object Notation format (JSON) in row-major order
http://www.bom.gov.au/fwo/IDN60801/IDN60801.94693.json